sensor_id;sensor_type;location;lat;lon;timestamp;temperature;humidity
16327;DHT22;34812;49.846;9.610;2023-02-15T00:00:40;2.80;99.90
16327;DHT22;34812;49.846;9.610;2023-02-15T00:01:41;2.80;99.90
16327;DHT22;34812;49.846;9.610;2023-02-15T00:02:43;2.80;99.90
16327;DHT22;34812;49.846;9.610;2023-02-15T00:03:44;2.80;99.90
16327;DHT22;34812;49.846;9.610;2023-02-15T00:04:45;2.80;99.90
16327;DHT22;34812;49.846;9.610;2023-02-15T00:05:46;2.80;99.90
16327;DHT22;34812;49.846;9.610;2023-02-15T00:06:48;2.70;99.90
16327;DHT22;34812;49.846;9.610;2023-02-15T00:07:49;2.80;99.90
16327;DHT22;34812;49.846;9.610;2023-02-15T00:08:50;2.70;99.90
16327;DHT22;34812;49.846;9.610;2023-02-15T00:09:52;2.70;99.90
16327;DHT22;34812;49.846;9.610;2023-02-15T00:11:03;2.70;99.90
16327;DHT22;34812;49.846;9.610;2023-02-15T00:12:04;2.70;99.90
16327;DHT22;34812;49.846;9.610;2023-02-15T00:13:06;2.80;99.90
16327;DHT22;34812;49.846;9.610;2023-02-15T00:14:08;2.70;99.90
16327;DHT22;34812;49.846;9.610;2023-02-15T00:15:10;2.80;99.90
16327;DHT22;34812;49.846;9.610;2023-02-15T00:16:13;2.80;99.90
16327;DHT22;34812;49.846;9.610;2023-02-15T00:17:15;2.90;99.90
16327;DHT22;34812;49.846;9.610;2023-02-15T00:18:15;2.80;99.90
16327;DHT22;34812;49.846;9.610;2023-02-15T00:19:19;2.80;99.90
16327;DHT22;34812;49.846;9.610;2023-02-15T00:20:20;2.80;99.90
16327;DHT22;34812;49.846;9.610;2023-02-15T00:21:22;2.80;99.90
16327;DHT22;34812;49.846;9.610;2023-02-15T00:22:23;2.80;99.90
16327;DHT22;34812;49.846;9.610;2023-02-15T00:23:26;2.80;99.90
16327;DHT22;34812;49.846;9.610;2023-02-15T00:24:27;2.80;99.90
16327;DHT22;34812;49.846;9.610;2023-02-15T00:25:30;2.80;99.90
16327;DHT22;34812;49.846;9.610;2023-02-15T00:26:31;2.80;99.90
16327;DHT22;34812;49.846;9.610;2023-02-15T00:27:33;2.80;99.90
16327;DHT22;34812;49.846;9.610;2023-02-15T00:28:37;2.80;99.90
16327;DHT22;34812;49.846;9.610;2023-02-15T00:29:38;2.80;99.90
16327;DHT22;34812;49.846;9.610;2023-02-15T00:30:40;2.80;99.90
16327;DHT22;34812;49.846;9.610;2023-02-15T00:31:40;2.80;99.90
16327;DHT22;34812;49.846;9.610;2023-02-15T00:32:42;2.80;99.90
16327;DHT22;34812;49.846;9.610;2023-02-15T00:33:45;2.80;99.90
16327;DHT22;34812;49.846;9.610;2023-02-15T00:34:46;2.80;99.90
16327;DHT22;34812;49.846;9.610;2023-02-15T00:35:48;2.80;99.90
16327;DHT22;34812;49.846;9.610;2023-02-15T00:36:50;2.80;99.90
16327;DHT22;34812;49.846;9.610;2023-02-15T00:37:52;2.80;99.90
16327;DHT22;34812;49.846;9.610;2023-02-15T00:38:52;2.80;99.90
16327;DHT22;34812;49.846;9.610;2023-02-15T00:39:54;2.80;99.90
16327;DHT22;34812;49.846;9.610;2023-02-15T00:40:58;2.80;99.90
16327;DHT22;34812;49.846;9.610;2023-02-15T00:42:00;2.80;99.90
16327;DHT22;34812;49.846;9.610;2023-02-15T00:43:00;2.80;99.90
16327;DHT22;34812;49.846;9.610;2023-02-15T00:44:03;2.80;99.90
16327;DHT22;34812;49.846;9.610;2023-02-15T00:45:04;2.70;99.90
16327;DHT22;34812;49.846;9.610;2023-02-15T00:46:06;2.70;99.90
16327;DHT22;34812;49.846;9.610;2023-02-15T00:47:07;2.80;99.90
16327;DHT22;34812;49.846;9.610;2023-02-15T00:48:08;2.70;99.90
16327;DHT22;34812;49.846;9.610;2023-02-15T00:49:10;2.80;99.90
16327;DHT22;34812;49.846;9.610;2023-02-15T00:50:12;2.80;99.90
16327;DHT22;34812;49.846;9.610;2023-02-15T00:51:12;2.80;99.90
16327;DHT22;34812;49.846;9.610;2023-02-15T00:52:14;2.80;99.90
16327;DHT22;34812;49.846;9.610;2023-02-15T00:53:15;2.80;99.90
16327;DHT22;34812;49.846;9.610;2023-02-15T00:54:17;2.80;99.90
16327;DHT22;34812;49.846;9.610;2023-02-15T00:55:18;2.80;99.90
16327;DHT22;34812;49.846;9.610;2023-02-15T00:56:21;2.80;99.90
16327;DHT22;34812;49.846;9.610;2023-02-15T00:57:22;2.80;99.90
16327;DHT22;34812;49.846;9.610;2023-02-15T00:58:24;2.80;99.90
16327;DHT22;34812;49.846;9.610;2023-02-15T00:59:25;2.80;99.90
16327;DHT22;34812;49.846;9.610;2023-02-15T01:00:27;2.80;99.90
16327;DHT22;34812;49.846;9.610;2023-02-15T01:01:28;2.80;99.90
16327;DHT22;34812;49.846;9.610;2023-02-15T01:02:29;2.80;99.90
16327;DHT22;34812;49.846;9.610;2023-02-15T01:03:30;2.80;99.90
16327;DHT22;34812;49.846;9.610;2023-02-15T01:04:32;2.80;99.90
16327;DHT22;34812;49.846;9.610;2023-02-15T01:05:32;2.80;99.90
16327;DHT22;34812;49.846;9.610;2023-02-15T01:06:34;2.80;99.90
16327;DHT22;34812;49.846;9.610;2023-02-15T01:07:35;2.90;99.90
16327;DHT22;34812;49.846;9.610;2023-02-15T01:08:37;2.90;99.90
16327;DHT22;34812;49.846;9.610;2023-02-15T01:09:38;2.80;99.90
16327;DHT22;34812;49.846;9.610;2023-02-15T01:10:40;2.80;99.90
16327;DHT22;34812;49.846;9.610;2023-02-15T01:11:42;2.80;99.90
16327;DHT22;34812;49.846;9.610;2023-02-15T01:12:44;2.80;99.90
16327;DHT22;34812;49.846;9.610;2023-02-15T01:13:45;2.80;99.90
16327;DHT22;34812;49.846;9.610;2023-02-15T01:14:46;2.80;99.90
16327;DHT22;34812;49.846;9.610;2023-02-15T01:15:52;2.80;99.90
16327;DHT22;34812;49.846;9.610;2023-02-15T01:16:55;2.80;99.90
16327;DHT22;34812;49.846;9.610;2023-02-15T01:17:56;2.70;99.90
16327;DHT22;34812;49.846;9.610;2023-02-15T01:18:57;2.70;99.90
16327;DHT22;34812;49.846;9.610;2023-02-15T01:19:58;2.70;99.90
16327;DHT22;34812;49.846;9.610;2023-02-15T01:21:00;2.70;99.90
16327;DHT22;34812;49.846;9.610;2023-02-15T01:22:09;2.70;99.90
16327;DHT22;34812;49.846;9.610;2023-02-15T01:23:11;2.70;99.90
16327;DHT22;34812;49.846;9.610;2023-02-15T01:24:12;2.70;99.90
16327;DHT22;34812;49.846;9.610;2023-02-15T01:25:14;2.70;99.90
16327;DHT22;34812;49.846;9.610;2023-02-15T01:26:16;2.70;99.90
16327;DHT22;34812;49.846;9.610;2023-02-15T01:27:19;2.70;99.90
16327;DHT22;34812;49.846;9.610;2023-02-15T01:28:20;2.70;99.90
16327;DHT22;34812;49.846;9.610;2023-02-15T01:29:22;2.80;99.90
16327;DHT22;34812;49.846;9.610;2023-02-15T01:30:23;2.80;99.90
16327;DHT22;34812;49.846;9.610;2023-02-15T01:31:24;2.80;99.90
16327;DHT22;34812;49.846;9.610;2023-02-15T01:32:25;2.70;99.90
16327;DHT22;34812;49.846;9.610;2023-02-15T01:33:27;2.70;99.90
16327;DHT22;34812;49.846;9.610;2023-02-15T01:34:29;2.70;99.90
16327;DHT22;34812;49.846;9.610;2023-02-15T01:35:31;2.70;99.90
16327;DHT22;34812;49.846;9.610;2023-02-15T01:36:33;2.70;99.90
16327;DHT22;34812;49.846;9.610;2023-02-15T01:37:36;2.70;99.90
16327;DHT22;34812;49.846;9.610;2023-02-15T01:38:36;2.60;99.90
16327;DHT22;34812;49.846;9.610;2023-02-15T01:39:40;2.60;99.90
16327;DHT22;34812;49.846;9.610;2023-02-15T01:40:41;2.60;99.90
16327;DHT22;34812;49.846;9.610;2023-02-15T01:41:43;2.60;99.90
16327;DHT22;34812;49.846;9.610;2023-02-15T01:42:45;2.70;99.90
16327;DHT22;34812;49.846;9.610;2023-02-15T01:43:49;2.70;99.90
16327;DHT22;34812;49.846;9.610;2023-02-15T01:44:54;2.70;99.90
16327;DHT22;34812;49.846;9.610;2023-02-15T01:45:57;2.70;99.90
16327;DHT22;34812;49.846;9.610;2023-02-15T01:46:58;2.70;99.90
16327;DHT22;34812;49.846;9.610;2023-02-15T01:48:03;2.70;99.90
16327;DHT22;34812;49.846;9.610;2023-02-15T01:49:10;2.70;99.90
16327;DHT22;34812;49.846;9.610;2023-02-15T01:50:16;2.70;99.90
16327;DHT22;34812;49.846;9.610;2023-02-15T01:51:20;2.70;99.90
16327;DHT22;34812;49.846;9.610;2023-02-15T01:52:23;2.70;99.90
16327;DHT22;34812;49.846;9.610;2023-02-15T01:53:27;2.70;99.90
16327;DHT22;34812;49.846;9.610;2023-02-15T01:54:32;2.70;99.90
16327;DHT22;34812;49.846;9.610;2023-02-15T01:55:39;2.60;99.90
16327;DHT22;34812;49.846;9.610;2023-02-15T01:56:42;2.60;99.90
16327;DHT22;34812;49.846;9.610;2023-02-15T01:57:45;2.60;99.90
16327;DHT22;34812;49.846;9.610;2023-02-15T01:58:49;2.60;99.90
16327;DHT22;34812;49.846;9.610;2023-02-15T01:59:54;2.60;99.90
16327;DHT22;34812;49.846;9.610;2023-02-15T02:01:00;2.60;99.90
16327;DHT22;34812;49.846;9.610;2023-02-15T02:02:02;2.60;99.90
16327;DHT22;34812;49.846;9.610;2023-02-15T02:03:05;2.60;99.90
16327;DHT22;34812;49.846;9.610;2023-02-15T02:04:11;2.60;99.90
16327;DHT22;34812;49.846;9.610;2023-02-15T02:05:14;2.60;99.90
16327;DHT22;34812;49.846;9.610;2023-02-15T02:06:15;2.60;99.90
16327;DHT22;34812;49.846;9.610;2023-02-15T02:07:20;2.60;99.90
16327;DHT22;34812;49.846;9.610;2023-02-15T02:08:21;2.60;99.90
16327;DHT22;34812;49.846;9.610;2023-02-15T02:09:23;2.60;99.90
16327;DHT22;34812;49.846;9.610;2023-02-15T02:10:25;2.50;99.90
16327;DHT22;34812;49.846;9.610;2023-02-15T02:11:27;2.50;99.90
16327;DHT22;34812;49.846;9.610;2023-02-15T02:12:27;2.50;99.90
16327;DHT22;34812;49.846;9.610;2023-02-15T02:13:31;2.50;99.90
16327;DHT22;34812;49.846;9.610;2023-02-15T02:14:31;2.50;99.90
16327;DHT22;34812;49.846;9.610;2023-02-15T02:15:40;2.50;99.90
16327;DHT22;34812;49.846;9.610;2023-02-15T02:16:51;2.50;99.90
16327;DHT22;34812;49.846;9.610;2023-02-15T02:18:03;2.50;99.90
16327;DHT22;34812;49.846;9.610;2023-02-15T02:21:01;2.60;99.90
16327;DHT22;34812;49.846;9.610;2023-02-15T02:22:36;2.60;99.90
16327;DHT22;34812;49.846;9.610;2023-02-15T02:23:59;2.60;99.90
16327;DHT22;34812;49.846;9.610;2023-02-15T02:25:17;2.50;99.90
16327;DHT22;34812;49.846;9.610;2023-02-15T02:26:54;2.50;99.90
16327;DHT22;34812;49.846;9.610;2023-02-15T02:28:12;2.50;99.90
16327;DHT22;34812;49.846;9.610;2023-02-15T02:31:43;2.50;99.90
16327;DHT22;34812;49.846;9.610;2023-02-15T02:33:07;2.50;99.90
16327;DHT22;34812;49.846;9.610;2023-02-15T02:34:13;2.50;99.90
16327;DHT22;34812;49.846;9.610;2023-02-15T02:35:22;2.50;99.90
16327;DHT22;34812;49.846;9.610;2023-02-15T02:36:31;2.50;99.90
16327;DHT22;34812;49.846;9.610;2023-02-15T02:37:45;2.50;99.90
16327;DHT22;34812;49.846;9.610;2023-02-15T02:38:57;2.40;99.90
16327;DHT22;34812;49.846;9.610;2023-02-15T02:40:08;2.50;99.90
16327;DHT22;34812;49.846;9.610;2023-02-15T02:41:17;2.50;99.90
16327;DHT22;34812;49.846;9.610;2023-02-15T02:42:25;2.50;99.90
16327;DHT22;34812;49.846;9.610;2023-02-15T02:43:33;2.50;99.90
16327;DHT22;34812;49.846;9.610;2023-02-15T02:44:41;2.50;99.90
16327;DHT22;34812;49.846;9.610;2023-02-15T02:45:47;2.50;99.90
16327;DHT22;34812;49.846;9.610;2023-02-15T02:46:54;2.50;99.90
16327;DHT22;34812;49.846;9.610;2023-02-15T02:48:03;2.50;99.90
16327;DHT22;34812;49.846;9.610;2023-02-15T02:49:07;2.50;99.90
16327;DHT22;34812;49.846;9.610;2023-02-15T02:50:09;2.50;99.90
16327;DHT22;34812;49.846;9.610;2023-02-15T02:51:13;2.50;99.90
16327;DHT22;34812;49.846;9.610;2023-02-15T02:52:38;2.40;99.90
16327;DHT22;34812;49.846;9.610;2023-02-15T02:53:40;2.50;99.90
16327;DHT22;34812;49.846;9.610;2023-02-15T02:54:41;2.50;99.90
16327;DHT22;34812;49.846;9.610;2023-02-15T02:55:46;2.50;99.90
16327;DHT22;34812;49.846;9.610;2023-02-15T02:56:48;2.50;99.90
16327;DHT22;34812;49.846;9.610;2023-02-15T02:57:54;2.40;99.90
16327;DHT22;34812;49.846;9.610;2023-02-15T02:59:00;2.40;99.90
16327;DHT22;34812;49.846;9.610;2023-02-15T03:00:05;2.40;99.90
16327;DHT22;34812;49.846;9.610;2023-02-15T03:01:11;2.40;99.90
16327;DHT22;34812;49.846;9.610;2023-02-15T03:02:18;2.40;99.90
16327;DHT22;34812;49.846;9.610;2023-02-15T03:03:26;2.40;99.90
16327;DHT22;34812;49.846;9.610;2023-02-15T03:04:32;2.50;99.90
16327;DHT22;34812;49.846;9.610;2023-02-15T03:05:37;2.50;99.90
16327;DHT22;34812;49.846;9.610;2023-02-15T03:06:42;2.50;99.90
16327;DHT22;34812;49.846;9.610;2023-02-15T03:07:49;2.50;99.90
16327;DHT22;34812;49.846;9.610;2023-02-15T03:08:54;2.50;99.90
16327;DHT22;34812;49.846;9.610;2023-02-15T03:10:00;2.50;99.90
16327;DHT22;34812;49.846;9.610;2023-02-15T03:11:05;2.50;99.90
16327;DHT22;34812;49.846;9.610;2023-02-15T03:12:06;2.40;99.90
16327;DHT22;34812;49.846;9.610;2023-02-15T03:13:13;2.40;99.90
16327;DHT22;34812;49.846;9.610;2023-02-15T03:14:16;2.40;99.90
16327;DHT22;34812;49.846;9.610;2023-02-15T03:15:20;2.40;99.90
16327;DHT22;34812;49.846;9.610;2023-02-15T03:16:23;2.50;99.90
16327;DHT22;34812;49.846;9.610;2023-02-15T03:17:31;2.40;99.90
16327;DHT22;34812;49.846;9.610;2023-02-15T03:18:37;2.40;99.90
16327;DHT22;34812;49.846;9.610;2023-02-15T03:19:40;2.40;99.90
16327;DHT22;34812;49.846;9.610;2023-02-15T03:20:44;2.40;99.90
16327;DHT22;34812;49.846;9.610;2023-02-15T03:21:47;2.40;99.90
16327;DHT22;34812;49.846;9.610;2023-02-15T03:22:59;2.40;99.90
16327;DHT22;34812;49.846;9.610;2023-02-15T03:24:06;2.40;99.90
16327;DHT22;34812;49.846;9.610;2023-02-15T03:25:11;2.40;99.90
16327;DHT22;34812;49.846;9.610;2023-02-15T03:26:14;2.40;99.90
16327;DHT22;34812;49.846;9.610;2023-02-15T03:27:20;2.40;99.90
16327;DHT22;34812;49.846;9.610;2023-02-15T03:28:27;2.40;99.90
16327;DHT22;34812;49.846;9.610;2023-02-15T03:29:32;2.40;99.90
16327;DHT22;34812;49.846;9.610;2023-02-15T03:30:34;2.40;99.90
16327;DHT22;34812;49.846;9.610;2023-02-15T03:31:38;2.50;99.90
16327;DHT22;34812;49.846;9.610;2023-02-15T03:32:41;2.50;99.90
16327;DHT22;34812;49.846;9.610;2023-02-15T03:33:52;2.50;99.90
16327;DHT22;34812;49.846;9.610;2023-02-15T03:34:54;2.40;99.90
16327;DHT22;34812;49.846;9.610;2023-02-15T03:36:01;2.40;99.90
16327;DHT22;34812;49.846;9.610;2023-02-15T03:37:10;2.40;99.90
16327;DHT22;34812;49.846;9.610;2023-02-15T03:38:17;2.40;99.90
16327;DHT22;34812;49.846;9.610;2023-02-15T03:39:22;2.40;99.90
16327;DHT22;34812;49.846;9.610;2023-02-15T03:40:30;2.40;99.90
16327;DHT22;34812;49.846;9.610;2023-02-15T03:42:10;2.40;99.90
16327;DHT22;34812;49.846;9.610;2023-02-15T03:43:17;2.30;99.90
16327;DHT22;34812;49.846;9.610;2023-02-15T03:44:24;2.30;99.90
16327;DHT22;34812;49.846;9.610;2023-02-15T03:45:31;2.30;99.90
16327;DHT22;34812;49.846;9.610;2023-02-15T03:46:36;2.30;99.90
16327;DHT22;34812;49.846;9.610;2023-02-15T03:47:43;2.30;99.90
16327;DHT22;34812;49.846;9.610;2023-02-15T03:48:49;2.30;99.90
16327;DHT22;34812;49.846;9.610;2023-02-15T03:49:55;2.30;99.90
16327;DHT22;34812;49.846;9.610;2023-02-15T03:51:02;2.40;99.90
16327;DHT22;34812;49.846;9.610;2023-02-15T03:52:25;2.40;99.90
16327;DHT22;34812;49.846;9.610;2023-02-15T03:53:29;2.30;99.90
16327;DHT22;34812;49.846;9.610;2023-02-15T03:54:32;2.30;99.90
16327;DHT22;34812;49.846;9.610;2023-02-15T03:55:46;2.30;99.90
16327;DHT22;34812;49.846;9.610;2023-02-15T03:56:48;2.20;99.90
16327;DHT22;34812;49.846;9.610;2023-02-15T03:58:10;2.30;99.90
16327;DHT22;34812;49.846;9.610;2023-02-15T03:59:29;2.30;99.90
16327;DHT22;34812;49.846;9.610;2023-02-15T04:00:53;2.30;99.90
16327;DHT22;34812;49.846;9.610;2023-02-15T04:02:20;2.20;99.90
16327;DHT22;34812;49.846;9.610;2023-02-15T04:03:28;2.20;99.90
16327;DHT22;34812;49.846;9.610;2023-02-15T04:04:36;2.30;99.90
16327;DHT22;34812;49.846;9.610;2023-02-15T04:05:38;2.30;99.90
16327;DHT22;34812;49.846;9.610;2023-02-15T04:06:39;2.30;99.90
16327;DHT22;34812;49.846;9.610;2023-02-15T04:07:41;2.30;99.90
16327;DHT22;34812;49.846;9.610;2023-02-15T04:08:42;2.30;99.90
16327;DHT22;34812;49.846;9.610;2023-02-15T04:10:01;2.30;99.90
16327;DHT22;34812;49.846;9.610;2023-02-15T04:11:21;2.30;99.90
16327;DHT22;34812;49.846;9.610;2023-02-15T04:12:23;2.30;99.90
16327;DHT22;34812;49.846;9.610;2023-02-15T04:13:29;2.30;99.90
16327;DHT22;34812;49.846;9.610;2023-02-15T04:14:31;2.30;99.90
16327;DHT22;34812;49.846;9.610;2023-02-15T04:15:51;2.30;99.90
16327;DHT22;34812;49.846;9.610;2023-02-15T04:17:06;2.20;99.90
16327;DHT22;34812;49.846;9.610;2023-02-15T04:18:07;2.20;99.90
16327;DHT22;34812;49.846;9.610;2023-02-15T04:19:09;2.20;99.90
16327;DHT22;34812;49.846;9.610;2023-02-15T04:20:30;2.20;99.90
16327;DHT22;34812;49.846;9.610;2023-02-15T04:21:49;2.20;99.90
16327;DHT22;34812;49.846;9.610;2023-02-15T04:23:08;2.30;99.90
16327;DHT22;34812;49.846;9.610;2023-02-15T04:24:28;2.30;99.90
16327;DHT22;34812;49.846;9.610;2023-02-15T04:25:47;2.30;99.90
16327;DHT22;34812;49.846;9.610;2023-02-15T04:26:50;2.30;99.90
16327;DHT22;34812;49.846;9.610;2023-02-15T04:27:54;2.30;99.90
16327;DHT22;34812;49.846;9.610;2023-02-15T04:28:56;2.30;99.90
16327;DHT22;34812;49.846;9.610;2023-02-15T04:29:56;2.30;99.90
16327;DHT22;34812;49.846;9.610;2023-02-15T04:30:58;2.30;99.90
16327;DHT22;34812;49.846;9.610;2023-02-15T04:32:00;2.30;99.90
16327;DHT22;34812;49.846;9.610;2023-02-15T04:33:02;2.30;99.90
16327;DHT22;34812;49.846;9.610;2023-02-15T04:34:03;2.30;99.90
16327;DHT22;34812;49.846;9.610;2023-02-15T04:35:05;2.30;99.90
16327;DHT22;34812;49.846;9.610;2023-02-15T04:36:08;2.30;99.90
16327;DHT22;34812;49.846;9.610;2023-02-15T04:37:10;2.30;99.90
16327;DHT22;34812;49.846;9.610;2023-02-15T04:38:11;2.30;99.90
16327;DHT22;34812;49.846;9.610;2023-02-15T04:39:13;2.30;99.90
16327;DHT22;34812;49.846;9.610;2023-02-15T04:40:17;2.30;99.90
16327;DHT22;34812;49.846;9.610;2023-02-15T04:41:18;2.30;99.90
16327;DHT22;34812;49.846;9.610;2023-02-15T04:42:20;2.30;99.90
16327;DHT22;34812;49.846;9.610;2023-02-15T04:43:21;2.30;99.90
16327;DHT22;34812;49.846;9.610;2023-02-15T04:44:22;2.30;99.90
16327;DHT22;34812;49.846;9.610;2023-02-15T04:45:23;2.30;99.90
16327;DHT22;34812;49.846;9.610;2023-02-15T04:46:25;2.30;99.90
16327;DHT22;34812;49.846;9.610;2023-02-15T04:47:26;2.20;99.90
16327;DHT22;34812;49.846;9.610;2023-02-15T04:48:27;2.20;99.90
16327;DHT22;34812;49.846;9.610;2023-02-15T04:49:28;2.20;99.90
16327;DHT22;34812;49.846;9.610;2023-02-15T04:50:30;2.30;99.90
16327;DHT22;34812;49.846;9.610;2023-02-15T04:51:32;2.30;99.90
16327;DHT22;34812;49.846;9.610;2023-02-15T04:52:34;2.30;99.90
16327;DHT22;34812;49.846;9.610;2023-02-15T04:53:35;2.30;99.90
16327;DHT22;34812;49.846;9.610;2023-02-15T04:54:37;2.30;99.90
16327;DHT22;34812;49.846;9.610;2023-02-15T04:55:38;2.30;99.90
16327;DHT22;34812;49.846;9.610;2023-02-15T04:56:40;2.30;99.90
16327;DHT22;34812;49.846;9.610;2023-02-15T04:57:41;2.30;99.90
16327;DHT22;34812;49.846;9.610;2023-02-15T04:58:42;2.30;99.90
16327;DHT22;34812;49.846;9.610;2023-02-15T04:59:43;2.30;99.90
16327;DHT22;34812;49.846;9.610;2023-02-15T05:00:45;2.30;99.90
16327;DHT22;34812;49.846;9.610;2023-02-15T05:01:46;2.30;99.90
16327;DHT22;34812;49.846;9.610;2023-02-15T05:02:47;2.30;99.90
16327;DHT22;34812;49.846;9.610;2023-02-15T05:03:48;2.30;99.90
16327;DHT22;34812;49.846;9.610;2023-02-15T05:04:50;2.20;99.90
16327;DHT22;34812;49.846;9.610;2023-02-15T05:05:51;2.30;99.90
16327;DHT22;34812;49.846;9.610;2023-02-15T05:06:54;2.30;99.90
16327;DHT22;34812;49.846;9.610;2023-02-15T05:07:55;2.30;99.90
16327;DHT22;34812;49.846;9.610;2023-02-15T05:08:56;2.30;99.90
16327;DHT22;34812;49.846;9.610;2023-02-15T05:09:59;2.30;99.90
16327;DHT22;34812;49.846;9.610;2023-02-15T05:11:01;2.30;99.90
16327;DHT22;34812;49.846;9.610;2023-02-15T05:12:02;2.30;99.90
16327;DHT22;34812;49.846;9.610;2023-02-15T05:13:03;2.30;99.90
16327;DHT22;34812;49.846;9.610;2023-02-15T05:14:04;2.30;99.90
16327;DHT22;34812;49.846;9.610;2023-02-15T05:15:07;2.20;99.90
16327;DHT22;34812;49.846;9.610;2023-02-15T05:16:08;2.20;99.90
16327;DHT22;34812;49.846;9.610;2023-02-15T05:17:09;2.20;99.90
16327;DHT22;34812;49.846;9.610;2023-02-15T05:18:10;2.20;99.90
16327;DHT22;34812;49.846;9.610;2023-02-15T05:19:12;2.20;99.90
16327;DHT22;34812;49.846;9.610;2023-02-15T05:20:13;2.20;99.90
16327;DHT22;34812;49.846;9.610;2023-02-15T05:21:15;2.20;99.90
16327;DHT22;34812;49.846;9.610;2023-02-15T05:22:18;2.20;99.90
16327;DHT22;34812;49.846;9.610;2023-02-15T05:23:20;2.10;99.90
16327;DHT22;34812;49.846;9.610;2023-02-15T05:24:20;2.10;99.90
16327;DHT22;34812;49.846;9.610;2023-02-15T05:25:40;2.10;99.90
16327;DHT22;34812;49.846;9.610;2023-02-15T05:27:02;2.20;99.90
16327;DHT22;34812;49.846;9.610;2023-02-15T05:28:21;2.20;99.90
16327;DHT22;34812;49.846;9.610;2023-02-15T05:29:23;2.20;99.90
16327;DHT22;34812;49.846;9.610;2023-02-15T05:30:24;2.20;99.90
16327;DHT22;34812;49.846;9.610;2023-02-15T05:31:26;2.20;99.90
16327;DHT22;34812;49.846;9.610;2023-02-15T05:32:26;2.20;99.90
16327;DHT22;34812;49.846;9.610;2023-02-15T05:33:28;2.20;99.90
16327;DHT22;34812;49.846;9.610;2023-02-15T05:34:29;2.20;99.90
16327;DHT22;34812;49.846;9.610;2023-02-15T05:35:31;2.10;99.90
16327;DHT22;34812;49.846;9.610;2023-02-15T05:36:32;2.10;99.90
16327;DHT22;34812;49.846;9.610;2023-02-15T05:37:35;2.10;99.90
16327;DHT22;34812;49.846;9.610;2023-02-15T05:38:37;2.10;99.90
16327;DHT22;34812;49.846;9.610;2023-02-15T05:39:39;2.10;99.90
16327;DHT22;34812;49.846;9.610;2023-02-15T05:40:39;2.10;99.90
16327;DHT22;34812;49.846;9.610;2023-02-15T05:41:41;2.10;99.90
16327;DHT22;34812;49.846;9.610;2023-02-15T05:42:42;2.10;99.90
16327;DHT22;34812;49.846;9.610;2023-02-15T05:43:44;2.10;99.90
16327;DHT22;34812;49.846;9.610;2023-02-15T05:44:45;2.10;99.90
16327;DHT22;34812;49.846;9.610;2023-02-15T05:45:47;2.10;99.90
16327;DHT22;34812;49.846;9.610;2023-02-15T05:46:47;2.10;99.90
16327;DHT22;34812;49.846;9.610;2023-02-15T05:47:49;2.10;99.90
16327;DHT22;34812;49.846;9.610;2023-02-15T05:48:50;2.10;99.90
16327;DHT22;34812;49.846;9.610;2023-02-15T05:49:52;2.10;99.90
16327;DHT22;34812;49.846;9.610;2023-02-15T05:51:00;2.00;99.90
16327;DHT22;34812;49.846;9.610;2023-02-15T05:52:02;2.00;99.90
16327;DHT22;34812;49.846;9.610;2023-02-15T05:53:05;2.00;99.90
16327;DHT22;34812;49.846;9.610;2023-02-15T05:54:07;2.00;99.90
16327;DHT22;34812;49.846;9.610;2023-02-15T05:55:07;1.90;99.90
16327;DHT22;34812;49.846;9.610;2023-02-15T05:56:11;1.90;99.90
16327;DHT22;34812;49.846;9.610;2023-02-15T05:57:12;1.90;99.90
16327;DHT22;34812;49.846;9.610;2023-02-15T05:58:14;1.90;99.90
16327;DHT22;34812;49.846;9.610;2023-02-15T05:59:15;1.80;99.90
16327;DHT22;34812;49.846;9.610;2023-02-15T06:00:17;1.90;99.90
16327;DHT22;34812;49.846;9.610;2023-02-15T06:01:19;1.90;99.90
16327;DHT22;34812;49.846;9.610;2023-02-15T06:02:22;1.90;99.90
16327;DHT22;34812;49.846;9.610;2023-02-15T06:03:24;1.80;99.90
16327;DHT22;34812;49.846;9.610;2023-02-15T06:04:26;1.90;99.90
16327;DHT22;34812;49.846;9.610;2023-02-15T06:05:28;1.80;99.90
16327;DHT22;34812;49.846;9.610;2023-02-15T06:06:29;1.80;99.90
16327;DHT22;34812;49.846;9.610;2023-02-15T06:07:31;1.80;99.90
16327;DHT22;34812;49.846;9.610;2023-02-15T06:08:34;1.80;99.90
16327;DHT22;34812;49.846;9.610;2023-02-15T06:09:36;1.80;99.90
16327;DHT22;34812;49.846;9.610;2023-02-15T06:10:37;1.80;99.90
16327;DHT22;34812;49.846;9.610;2023-02-15T06:11:40;1.80;99.90
16327;DHT22;34812;49.846;9.610;2023-02-15T06:12:41;1.80;99.90
16327;DHT22;34812;49.846;9.610;2023-02-15T06:13:43;1.80;99.90
16327;DHT22;34812;49.846;9.610;2023-02-15T06:14:43;1.80;99.90
16327;DHT22;34812;49.846;9.610;2023-02-15T06:15:45;1.80;99.90
16327;DHT22;34812;49.846;9.610;2023-02-15T06:16:46;1.80;99.90
16327;DHT22;34812;49.846;9.610;2023-02-15T06:17:48;1.80;99.90
16327;DHT22;34812;49.846;9.610;2023-02-15T06:18:49;1.80;99.90
16327;DHT22;34812;49.846;9.610;2023-02-15T06:19:50;1.80;99.90
16327;DHT22;34812;49.846;9.610;2023-02-15T06:20:51;1.80;99.90
16327;DHT22;34812;49.846;9.610;2023-02-15T06:21:53;1.80;99.90
16327;DHT22;34812;49.846;9.610;2023-02-15T06:22:54;1.80;99.90
16327;DHT22;34812;49.846;9.610;2023-02-15T06:23:57;1.80;99.90
16327;DHT22;34812;49.846;9.610;2023-02-15T06:24:58;1.80;99.90
16327;DHT22;34812;49.846;9.610;2023-02-15T06:25:59;1.70;99.90
16327;DHT22;34812;49.846;9.610;2023-02-15T06:27:00;1.70;99.90
16327;DHT22;34812;49.846;9.610;2023-02-15T06:28:02;1.70;99.90
16327;DHT22;34812;49.846;9.610;2023-02-15T06:29:03;1.70;99.90
16327;DHT22;34812;49.846;9.610;2023-02-15T06:30:06;1.70;99.90
16327;DHT22;34812;49.846;9.610;2023-02-15T06:31:08;1.60;99.90
16327;DHT22;34812;49.846;9.610;2023-02-15T06:32:10;1.60;99.90
16327;DHT22;34812;49.846;9.610;2023-02-15T06:33:10;1.60;99.90
16327;DHT22;34812;49.846;9.610;2023-02-15T06:34:12;1.60;99.90
16327;DHT22;34812;49.846;9.610;2023-02-15T06:35:14;1.50;99.90
16327;DHT22;34812;49.846;9.610;2023-02-15T06:36:15;1.50;99.90
16327;DHT22;34812;49.846;9.610;2023-02-15T06:37:17;1.50;99.90
16327;DHT22;34812;49.846;9.610;2023-02-15T06:38:18;1.60;99.90
16327;DHT22;34812;49.846;9.610;2023-02-15T06:39:21;1.60;99.90
16327;DHT22;34812;49.846;9.610;2023-02-15T06:40:22;1.60;99.90
16327;DHT22;34812;49.846;9.610;2023-02-15T06:41:24;1.60;99.90
16327;DHT22;34812;49.846;9.610;2023-02-15T06:42:25;1.60;99.90
16327;DHT22;34812;49.846;9.610;2023-02-15T06:43:27;1.60;99.90
16327;DHT22;34812;49.846;9.610;2023-02-15T06:44:28;1.50;99.90
16327;DHT22;34812;49.846;9.610;2023-02-15T06:45:29;1.50;99.90
16327;DHT22;34812;49.846;9.610;2023-02-15T06:46:30;1.50;99.90
16327;DHT22;34812;49.846;9.610;2023-02-15T06:47:32;1.50;99.90
16327;DHT22;34812;49.846;9.610;2023-02-15T06:48:33;1.50;99.90
16327;DHT22;34812;49.846;9.610;2023-02-15T06:49:34;1.40;99.90
16327;DHT22;34812;49.846;9.610;2023-02-15T06:50:35;1.40;99.90
16327;DHT22;34812;49.846;9.610;2023-02-15T06:51:37;1.40;99.90
16327;DHT22;34812;49.846;9.610;2023-02-15T06:52:38;1.40;99.90
16327;DHT22;34812;49.846;9.610;2023-02-15T06:53:40;1.30;99.90
16327;DHT22;34812;49.846;9.610;2023-02-15T06:54:44;1.30;99.90
16327;DHT22;34812;49.846;9.610;2023-02-15T06:55:46;1.30;99.90